createdAt,value
2022-09-16T00:00:27.752Z,12.85
2022-09-16T00:02:55.414Z,11.73
2022-09-16T00:05:22.406Z,12.05
2022-09-16T00:07:49.582Z,11.57
2022-09-16T00:10:17.052Z,12.77
2022-09-16T00:12:44.196Z,11.85
2022-09-16T00:15:11.299Z,11.30
2022-09-16T00:17:38.434Z,11.15
2022-09-16T00:20:06.881Z,13.27
2022-09-16T00:22:33.669Z,13.60
2022-09-16T00:25:00.382Z,12.23
2022-09-16T00:27:27.751Z,13.77
2022-09-16T00:29:54.483Z,10.75
2022-09-16T00:32:21.192Z,11.10
2022-09-16T00:34:47.939Z,11.32
2022-09-16T00:37:15.276Z,11.32
2022-09-16T00:39:42.024Z,11.40
2022-09-16T00:42:11.959Z,10.65
2022-09-16T00:45:05.023Z,10.10
2022-09-16T00:47:59.130Z,10.15
2022-09-16T00:50:48.330Z,8.85
2022-09-16T00:53:43.416Z,8.75
2022-09-16T00:56:13.123Z,9.18
2022-09-16T00:58:45.788Z,9.45
2022-09-16T01:01:12.759Z,9.90
2022-09-16T01:03:48.772Z,9.10
2022-09-16T01:06:18.817Z,10.43
2022-09-16T01:08:46.190Z,10.20
2022-09-16T01:11:13.077Z,9.43
2022-09-16T01:13:41.709Z,10.98
2022-09-16T01:16:31.268Z,10.80
2022-09-16T01:19:06.995Z,11.07
2022-09-16T01:22:06.957Z,10.18
2022-09-16T01:24:54.443Z,10.88
2022-09-16T01:27:29.767Z,10.90
2022-09-16T01:30:14.887Z,10.30
2022-09-16T01:33:01.336Z,10.57
2022-09-16T01:35:58.507Z,10.65
2022-09-16T01:38:40.876Z,10.77
2022-09-16T01:41:29.364Z,11.52
2022-09-16T01:44:20.614Z,10.93
2022-09-16T01:47:11.153Z,10.55
2022-09-16T01:49:56.558Z,10.32
2022-09-16T01:52:29.073Z,10.70
2022-09-16T01:55:06.159Z,10.77
2022-09-16T01:58:09.547Z,10.98
2022-09-16T02:00:39.968Z,10.20
2022-09-16T02:03:14.008Z,10.95
2022-09-16T02:05:42.975Z,10.90
2022-09-16T02:08:13.427Z,10.38
2022-09-16T02:10:55.803Z,9.80
2022-09-16T02:13:29.110Z,10.80
2022-09-16T02:16:02.320Z,9.95
2022-09-16T02:18:34.629Z,10.68
2022-09-16T02:21:05.312Z,10.60
2022-09-16T02:23:39.802Z,11.05
2022-09-16T02:26:10.140Z,10.65
2022-09-16T02:28:41.242Z,11.48
2022-09-16T02:31:09.668Z,10.85
2022-09-16T02:33:51.807Z,10.45
2022-09-16T02:36:22.185Z,10.80
2022-09-16T02:38:54.610Z,10.07
2022-09-16T02:41:22.531Z,8.55
2022-09-16T02:43:49.417Z,9.80
2022-09-16T02:46:40.387Z,10.07
2022-09-16T02:49:45.494Z,9.32
2022-09-16T02:52:38.138Z,9.48
2022-09-16T02:55:30.190Z,9.50
2022-09-16T02:57:57.275Z,10.15
2022-09-16T03:00:25.720Z,10.18
2022-09-16T03:02:54.378Z,9.77
2022-09-16T03:05:26.680Z,9.80
2022-09-16T03:07:53.437Z,9.75
2022-09-16T03:10:23.925Z,10.77
2022-09-16T03:13:11.990Z,10.88
2022-09-16T03:16:00.502Z,11.57
2022-09-16T03:18:36.258Z,10.45
2022-09-16T03:21:17.995Z,11.07
2022-09-16T03:24:14.675Z,10.45
2022-09-16T03:27:01.845Z,10.68
2022-09-16T03:29:42.574Z,10.23
2022-09-16T03:32:23.639Z,10.05
2022-09-16T03:35:11.280Z,11.30
2022-09-16T03:37:40.254Z,10.23
2022-09-16T03:40:14.574Z,10.30
2022-09-16T03:42:43.120Z,10.10
2022-09-16T03:45:21.518Z,9.75
2022-09-16T03:47:50.560Z,9.30
2022-09-16T03:50:18.695Z,9.68
2022-09-16T03:52:45.416Z,9.13
2022-09-16T03:55:12.583Z,9.45
2022-09-16T03:57:39.828Z,9.70
2022-09-16T04:00:08.549Z,9.35
2022-09-16T04:02:40.937Z,10.10
2022-09-16T04:05:08.875Z,10.23
2022-09-16T04:07:35.698Z,9.73
2022-09-16T04:10:02.872Z,11.05
2022-09-16T04:12:29.737Z,10.05
2022-09-16T04:14:56.635Z,11.13
2022-09-16T04:17:23.742Z,10.68
2022-09-16T04:19:51.140Z,10.15
2022-09-16T04:22:17.861Z,10.80
2022-09-16T04:24:44.614Z,10.75
2022-09-16T04:27:11.326Z,10.45
2022-09-16T04:29:38.251Z,10.93
2022-09-16T04:32:05.075Z,10.88
2022-09-16T04:34:32.526Z,11.02
2022-09-16T04:36:59.490Z,11.55
2022-09-16T04:39:26.319Z,11.23
2022-09-16T04:41:53.122Z,10.98
2022-09-16T04:44:19.867Z,10.93
2022-09-16T04:46:46.654Z,11.63
2022-09-16T04:49:13.534Z,11.77
2022-09-16T04:51:40.432Z,11.35
2022-09-16T04:54:07.177Z,12.05
2022-09-16T04:56:33.974Z,12.30
2022-09-16T04:59:03.062Z,11.02
2022-09-16T05:01:33.004Z,12.20
2022-09-16T05:04:02.420Z,11.82
2022-09-16T05:06:32.183Z,12.15
2022-09-16T05:09:00.980Z,12.00
2022-09-16T05:11:36.827Z,12.48
2022-09-16T05:14:06.091Z,12.65
2022-09-16T05:16:33.590Z,12.77
2022-09-16T05:19:01.826Z,12.35
2022-09-16T05:21:28.911Z,11.95
2022-09-16T05:23:59.641Z,12.25
2022-09-16T05:26:29.747Z,11.90
2022-09-16T05:28:56.481Z,11.27
2022-09-16T05:31:29.051Z,12.13
2022-09-16T05:34:03.320Z,11.30
2022-09-16T05:36:33.057Z,10.90
2022-09-16T05:39:21.516Z,11.02
2022-09-16T05:41:46.812Z,10.93
2022-09-16T05:44:14.503Z,10.93
2022-09-16T05:46:41.827Z,11.10
2022-09-16T05:49:09.266Z,10.35
2022-09-16T05:51:38.306Z,10.25
2022-09-16T05:54:05.567Z,10.40
2022-09-16T05:56:32.517Z,9.30
2022-09-16T05:59:00.481Z,10.65
2022-09-16T06:01:37.577Z,9.80
2022-09-16T06:04:06.507Z,10.10
2022-09-16T06:06:38.163Z,8.95
2022-09-16T06:09:10.761Z,8.52
2022-09-16T06:11:44.443Z,8.95
2022-09-16T06:14:13.070Z,9.40
2022-09-16T06:16:40.660Z,9.48
2022-09-16T06:19:10.881Z,9.05
2022-09-16T06:21:38.150Z,11.73
2022-09-16T06:24:08.785Z,10.70
2022-09-16T06:26:40.699Z,10.80
2022-09-16T06:29:09.339Z,10.18
2022-09-16T06:31:37.649Z,9.80
2022-09-16T06:34:05.469Z,9.77
2022-09-16T06:36:40.379Z,10.45
2022-09-16T06:39:13.241Z,9.00
2022-09-16T06:41:39.979Z,10.98
2022-09-16T06:44:06.770Z,10.13
2022-09-16T06:46:33.576Z,10.00
2022-09-16T06:49:05.067Z,11.30
2022-09-16T06:51:32.634Z,11.02
2022-09-16T06:54:01.815Z,11.25
2022-09-16T06:56:28.747Z,12.23
2022-09-16T06:58:56.037Z,11.55
2022-09-16T07:01:26.572Z,12.00
2022-09-16T07:03:54.342Z,11.38
2022-09-16T07:06:33.363Z,11.32
2022-09-16T07:09:11.222Z,11.50
2022-09-16T07:11:38.059Z,10.55
2022-09-16T07:14:05.109Z,10.38
2022-09-16T07:16:31.917Z,10.73
2022-09-16T07:19:01.227Z,10.30
2022-09-16T07:21:30.511Z,11.45
2022-09-16T07:24:02.485Z,11.15
2022-09-16T07:26:31.690Z,10.00
2022-09-16T07:29:03.502Z,9.00
2022-09-16T07:31:37.566Z,9.70
2022-09-16T07:34:06.780Z,8.20
2022-09-16T07:36:36.584Z,7.50
2022-09-16T07:39:04.879Z,8.32
2022-09-16T07:41:37.493Z,6.93
2022-09-16T07:44:05.546Z,7.00
2022-09-16T07:46:34.613Z,6.65
2022-09-16T07:49:03.663Z,6.85
2022-09-16T07:51:31.293Z,6.93
2022-09-16T07:54:04.667Z,7.05
2022-09-16T07:56:34.515Z,7.95
2022-09-16T07:59:03.547Z,7.32
2022-09-16T08:01:33.336Z,7.10
2022-09-16T08:04:01.137Z,6.82
2022-09-16T08:06:29.879Z,7.90
2022-09-16T08:09:05.787Z,7.18
2022-09-16T08:11:42.413Z,7.47
2022-09-16T08:14:09.207Z,7.35
2022-09-16T08:16:36.043Z,6.55
2022-09-16T08:19:02.863Z,9.88
2022-09-16T08:21:29.935Z,7.78
2022-09-16T08:23:57.743Z,5.78
2022-09-16T08:26:25.169Z,1.90
2022-09-16T08:29:07.790Z,1.50
2022-09-16T08:31:36.937Z,0.90
2022-09-16T08:34:04.196Z,0.65
2022-09-16T08:36:33.200Z,0.52
2022-09-16T08:39:01.476Z,2.97
2022-09-16T08:41:55.143Z,3.05
2022-09-16T08:44:46.520Z,3.20
2022-09-16T08:47:42.624Z,3.75
2022-09-16T08:50:26.204Z,5.82
2022-09-16T08:52:56.557Z,4.70
2022-09-16T08:55:37.440Z,5.07
2022-09-16T08:58:16.149Z,5.65
2022-09-16T09:00:45.691Z,5.57
2022-09-16T09:03:40.436Z,5.03
2022-09-16T09:06:36.246Z,5.22
2022-09-16T09:09:34.232Z,4.80
2022-09-16T09:12:24.983Z,6.00
2022-09-16T09:15:16.766Z,4.32
2022-09-16T09:17:52.277Z,4.47
2022-09-16T09:20:28.736Z,3.72
2022-09-16T09:23:26.506Z,4.55
2022-09-16T09:26:19.381Z,4.20
2022-09-16T09:28:55.512Z,4.38
2022-09-16T09:31:41.208Z,7.47
2022-09-16T09:34:38.322Z,4.35
2022-09-16T09:37:33.421Z,4.88
2022-09-16T09:40:09.600Z,4.35
2022-09-16T09:42:53.539Z,5.40
2022-09-16T09:45:33.097Z,4.60
2022-09-16T09:48:23.364Z,5.07
2022-09-16T09:50:52.454Z,4.38
2022-09-16T09:53:28.634Z,5.20
2022-09-16T09:56:04.716Z,4.85
2022-09-16T09:58:39.224Z,4.97
2022-09-16T10:01:06.175Z,4.50
2022-09-16T10:03:32.974Z,4.80
2022-09-16T10:05:59.788Z,4.53
2022-09-16T10:08:41.451Z,4.03
2022-09-16T10:11:27.149Z,4.53
2022-09-16T10:13:57.841Z,4.30
2022-09-16T10:16:38.454Z,4.35
2022-09-16T10:19:19.487Z,3.65
2022-09-16T10:22:09.716Z,4.20
2022-09-16T10:24:40.092Z,4.88
2022-09-16T10:27:28.341Z,3.97
2022-09-16T10:30:06.986Z,4.43
2022-09-16T10:32:58.608Z,4.68
2022-09-16T10:35:31.239Z,3.50
2022-09-16T10:38:21.152Z,3.33
2022-09-16T10:40:57.803Z,2.30
2022-09-16T10:43:26.191Z,2.35
2022-09-16T10:45:54.857Z,1.60
2022-09-16T10:48:30.270Z,1.52
2022-09-16T10:51:00.289Z,1.80
2022-09-16T10:53:39.558Z,1.88
2022-09-16T10:56:21.080Z,2.10
2022-09-16T10:58:47.817Z,1.90
2022-09-16T11:01:40.130Z,2.20
2022-09-16T11:04:50.685Z,2.78
2022-09-16T11:07:55.037Z,2.65
2022-09-16T11:10:29.512Z,2.58
2022-09-16T11:13:19.579Z,2.35
2022-09-16T11:16:11.165Z,2.03
2022-09-16T11:18:57.524Z,2.05
2022-09-16T11:21:42.822Z,1.90
2022-09-16T11:24:18.789Z,2.10
2022-09-16T11:27:09.112Z,2.17
2022-09-16T11:30:03.296Z,2.10
2022-09-16T11:32:48.186Z,2.30
2022-09-16T11:36:13.825Z,2.60
2022-09-16T11:38:49.765Z,2.45
2022-09-16T11:42:03.378Z,2.35
2022-09-16T11:44:39.295Z,2.13
2022-09-16T11:47:37.111Z,2.05
2022-09-16T11:50:36.344Z,2.33
2022-09-16T11:53:24.619Z,2.53
2022-09-16T11:56:04.649Z,2.60
2022-09-16T11:58:49.095Z,2.80
2022-09-16T12:01:34.682Z,2.80
2022-09-16T12:04:10.214Z,2.92
2022-09-16T12:07:09.861Z,2.85
2022-09-16T12:09:45.435Z,3.20
2022-09-16T12:12:20.073Z,3.10
2022-09-16T12:15:27.403Z,3.42
2022-09-16T12:17:58.937Z,3.03
2022-09-16T12:20:33.352Z,2.88
2022-09-16T12:23:23.777Z,2.97
2022-09-16T12:26:09.982Z,2.75
2022-09-16T12:28:44.998Z,2.92
2022-09-16T12:31:31.088Z,2.88
2022-09-16T12:34:02.674Z,2.83
2022-09-16T12:36:38.289Z,2.88
2022-09-16T12:39:05.206Z,3.35
2022-09-16T12:42:19.447Z,3.60
2022-09-16T12:45:15.789Z,2.97
2022-09-16T12:47:42.431Z,3.03
2022-09-16T12:50:45.648Z,3.40
2022-09-16T12:53:50.037Z,2.92
2022-09-16T12:56:19.846Z,3.22
2022-09-16T12:58:52.305Z,3.00
2022-09-16T13:01:25.051Z,3.05
2022-09-16T13:04:28.041Z,3.10
2022-09-16T13:06:59.744Z,2.53
2022-09-16T13:09:33.315Z,3.00
2022-09-16T13:12:44.755Z,2.58
2022-09-16T13:15:31.404Z,2.97
2022-09-16T13:18:16.694Z,2.90
2022-09-16T13:20:59.334Z,3.10
2022-09-16T13:23:40.156Z,3.10
2022-09-16T13:26:09.003Z,2.97
2022-09-16T13:28:41.825Z,2.90
2022-09-16T13:31:11.550Z,3.20
2022-09-16T13:33:43.987Z,3.30
2022-09-16T13:36:30.222Z,3.13
2022-09-16T13:39:03.162Z,3.50
2022-09-16T13:41:37.169Z,3.60
2022-09-16T13:44:39.238Z,4.20
2022-09-16T13:47:12.198Z,3.78
2022-09-16T13:49:42.819Z,3.03
2022-09-16T13:52:17.035Z,3.55
2022-09-16T13:55:09.364Z,3.50
2022-09-16T13:57:49.402Z,3.20
2022-09-16T14:00:43.756Z,3.33
2022-09-16T14:03:45.602Z,3.20
2022-09-16T14:06:45.634Z,3.38
2022-09-16T14:09:37.065Z,3.72
2022-09-16T14:12:11.306Z,3.28
2022-09-16T14:14:53.405Z,4.00
2022-09-16T14:17:25.802Z,3.78
2022-09-16T14:19:57.649Z,3.72
2022-09-16T14:22:27.325Z,3.25
2022-09-16T14:25:05.872Z,3.72
2022-09-16T14:27:39.681Z,3.03
2022-09-16T14:30:15.184Z,3.65
2022-09-16T14:32:42.176Z,3.38
2022-09-16T14:35:15.221Z,3.40
2022-09-16T14:37:45.868Z,3.70
2022-09-16T14:40:19.408Z,3.58
2022-09-16T14:43:00.286Z,3.50
2022-09-16T14:45:29.090Z,4.20
2022-09-16T14:47:58.007Z,3.00
2022-09-16T14:50:33.431Z,3.13
2022-09-16T14:53:02.663Z,3.03
2022-09-16T14:55:36.264Z,3.20
2022-09-16T14:58:03.708Z,3.10
2022-09-16T15:00:58.502Z,2.83
2022-09-16T15:03:32.272Z,3.75
2022-09-16T15:06:06.876Z,3.15
2022-09-16T15:08:46.969Z,3.47
2022-09-16T15:11:45.971Z,3.63
2022-09-16T15:14:07.712Z,3.25
2022-09-16T15:16:40.071Z,4.13
2022-09-16T15:19:07.171Z,4.32
2022-09-16T15:21:38.027Z,3.70
2022-09-16T15:24:16.080Z,5.10
2022-09-16T15:26:46.411Z,4.22
2022-09-16T15:29:20.602Z,4.05
2022-09-16T15:31:48.052Z,4.93
2022-09-16T15:34:18.830Z,5.50
2022-09-16T15:36:47.911Z,4.80
2022-09-16T15:39:39.495Z,3.53
2022-09-16T15:42:13.405Z,3.20
2022-09-16T15:44:50.167Z,3.03
2022-09-16T15:47:23.946Z,2.50
2022-09-16T15:49:59.706Z,3.05
2022-09-16T15:52:26.805Z,3.13
2022-09-16T15:55:05.430Z,2.58
2022-09-16T15:57:47.359Z,2.67
2022-09-16T16:00:16.166Z,2.50
2022-09-16T16:02:57.001Z,2.38
2022-09-16T16:05:31.763Z,2.80
2022-09-16T16:08:00.820Z,2.33
2022-09-16T16:10:32.590Z,2.30
2022-09-16T16:13:00.954Z,2.58
2022-09-16T16:15:34.326Z,3.28
2022-09-16T16:18:04.561Z,2.20
2022-09-16T16:20:33.913Z,3.13
2022-09-16T16:23:01.210Z,2.13
2022-09-16T16:25:28.608Z,2.42
2022-09-16T16:27:55.311Z,2.15
2022-09-16T16:30:22.135Z,2.25
2022-09-16T16:32:48.899Z,2.42
2022-09-16T16:35:15.776Z,2.47
2022-09-16T16:37:47.214Z,2.85
2022-09-16T16:40:15.212Z,2.20
2022-09-16T16:42:43.677Z,2.70
2022-09-16T16:45:14.299Z,2.60
2022-09-16T16:47:41.550Z,2.72
2022-09-16T16:50:08.883Z,2.35
2022-09-16T16:52:35.629Z,2.40
2022-09-16T16:55:02.360Z,2.55
2022-09-16T16:57:29.095Z,2.42
2022-09-16T16:59:56.397Z,2.72
2022-09-16T17:02:23.338Z,2.97
2022-09-16T17:04:50.155Z,2.65
2022-09-16T17:07:32.593Z,3.20
2022-09-16T17:09:59.510Z,3.20
2022-09-16T17:12:26.814Z,3.40
2022-09-16T17:14:53.714Z,2.70
2022-09-16T17:17:20.445Z,2.80
2022-09-16T17:19:47.166Z,3.00
2022-09-16T17:22:13.883Z,2.42
2022-09-16T17:24:40.715Z,2.38
2022-09-16T17:27:07.446Z,3.35
2022-09-16T17:29:34.477Z,3.20
2022-09-16T17:32:02.947Z,3.75
2022-09-16T17:34:30.188Z,3.70
2022-09-16T17:36:58.145Z,2.95
2022-09-16T17:39:24.871Z,2.80
2022-09-16T17:41:51.685Z,2.80
2022-09-16T17:44:19.528Z,2.80
2022-09-16T17:46:47.090Z,3.10
2022-09-16T17:49:20.084Z,3.00
2022-09-16T17:51:47.513Z,3.17
2022-09-16T17:54:14.943Z,3.28
2022-09-16T17:56:44.993Z,3.20
2022-09-16T17:59:13.111Z,3.50
2022-09-16T18:01:40.322Z,4.13
2022-09-16T18:04:07.904Z,4.20
2022-09-16T18:06:43.432Z,3.30
2022-09-16T18:09:10.899Z,3.08
2022-09-16T18:11:38.811Z,3.10
2022-09-16T18:14:08.022Z,2.25
2022-09-16T18:16:35.125Z,3.03
2022-09-16T18:19:02.587Z,2.80
2022-09-16T18:21:30.175Z,3.00
2022-09-16T18:23:59.432Z,3.08
2022-09-16T18:26:27.320Z,2.78
2022-09-16T18:29:12.403Z,2.20
2022-09-16T18:31:41.741Z,2.00
2022-09-16T18:34:08.901Z,2.20
2022-09-16T18:36:37.564Z,1.77
2022-09-16T18:39:05.931Z,2.10
2022-09-16T18:41:37.316Z,1.50
2022-09-16T18:44:14.228Z,1.90
2022-09-16T18:46:41.392Z,1.90
2022-09-16T18:49:10.136Z,2.83
2022-09-16T18:51:39.209Z,2.38
2022-09-16T18:54:11.263Z,2.40
2022-09-16T18:56:39.804Z,2.28
2022-09-16T18:59:22.213Z,2.45
2022-09-16T19:01:54.541Z,2.65
2022-09-16T19:04:24.268Z,2.25
2022-09-16T19:06:53.588Z,2.20
2022-09-16T19:09:22.972Z,2.47
2022-09-16T19:11:52.693Z,2.40
2022-09-16T19:14:22.387Z,3.00
2022-09-16T19:16:49.190Z,2.45
2022-09-16T19:19:16.549Z,2.75
2022-09-16T19:21:44.069Z,2.33
2022-09-16T19:24:19.500Z,3.03
2022-09-16T19:26:47.433Z,3.13
2022-09-16T19:29:15.754Z,2.70
2022-09-16T19:31:44.602Z,2.83
2022-09-16T19:34:12.767Z,2.83
2022-09-16T19:36:40.767Z,3.33
2022-09-16T19:39:08.981Z,3.33
2022-09-16T19:41:38.376Z,4.18
2022-09-16T19:44:07.951Z,3.80
2022-09-16T19:46:37.444Z,4.00
2022-09-16T19:49:05.700Z,3.95
2022-09-16T19:51:33.076Z,4.65
2022-09-16T19:54:01.042Z,3.92
2022-09-16T19:56:31.778Z,4.88
2022-09-16T19:59:00.274Z,4.00
2022-09-16T20:01:34.793Z,3.70
2022-09-16T20:04:03.143Z,3.00
2022-09-16T20:06:40.632Z,2.95
2022-09-16T20:09:11.547Z,3.08
2022-09-16T20:11:40.916Z,2.78
2022-09-16T20:14:13.553Z,2.90
2022-09-16T20:16:41.140Z,3.00
2022-09-16T20:19:12.134Z,2.97
2022-09-16T20:21:39.168Z,3.30
2022-09-16T20:24:08.084Z,3.03
2022-09-16T20:26:35.778Z,3.22
2022-09-16T20:29:03.378Z,3.38
2022-09-16T20:31:32.800Z,3.58
2022-09-16T20:33:59.883Z,3.70
2022-09-16T20:36:30.658Z,4.32
2022-09-16T20:38:59.612Z,6.53
2022-09-16T20:41:30.152Z,4.63
2022-09-16T20:43:57.741Z,4.47
2022-09-16T20:46:27.063Z,3.53
2022-09-16T20:48:55.665Z,3.90
2022-09-16T20:51:24.629Z,3.08
2022-09-16T20:53:56.851Z,3.22
2022-09-16T20:56:24.218Z,2.97
2022-09-16T20:58:51.236Z,2.40
2022-09-16T21:01:23.686Z,3.00
2022-09-16T21:03:52.433Z,3.00
2022-09-16T21:06:19.480Z,2.75
2022-09-16T21:08:46.995Z,2.78
2022-09-16T21:11:16.144Z,2.72
2022-09-16T21:13:46.866Z,2.70
2022-09-16T21:16:15.735Z,2.95
2022-09-16T21:18:43.162Z,2.72
2022-09-16T21:21:14.068Z,2.40
2022-09-16T21:23:41.147Z,2.53
2022-09-16T21:26:17.643Z,2.00
2022-09-16T21:28:45.518Z,2.20
2022-09-16T21:31:14.805Z,1.90
2022-09-16T21:33:44.734Z,2.10
2022-09-16T21:36:13.937Z,1.92
2022-09-16T21:38:41.442Z,1.98
2022-09-16T21:41:12.772Z,2.17
2022-09-16T21:43:49.593Z,2.08
2022-09-16T21:46:20.071Z,2.30
2022-09-16T21:48:50.737Z,2.17
2022-09-16T21:51:19.684Z,1.98
2022-09-16T21:53:47.324Z,2.75
2022-09-16T21:56:17.103Z,2.40
2022-09-16T21:58:44.357Z,2.15
2022-09-16T22:01:17.282Z,2.30
2022-09-16T22:03:46.004Z,2.08
2022-09-16T22:06:14.357Z,2.00
2022-09-16T22:08:48.079Z,1.70
2022-09-16T22:11:18.269Z,1.70
2022-09-16T22:13:45.298Z,1.60
2022-09-16T22:16:28.838Z,2.03
2022-09-16T22:19:07.566Z,1.90
2022-09-16T22:21:40.098Z,1.65
2022-09-16T22:24:07.145Z,2.00
2022-09-16T22:26:34.833Z,2.00
2022-09-16T22:29:01.536Z,2.05
2022-09-16T22:31:31.207Z,3.53
2022-09-16T22:34:01.159Z,2.50
2022-09-16T22:36:32.400Z,3.20
2022-09-16T22:39:06.158Z,1.75
2022-09-16T22:41:33.645Z,4.60
2022-09-16T22:44:00.811Z,4.93
2022-09-16T22:46:31.388Z,6.57
2022-09-16T22:48:59.440Z,3.28
2022-09-16T22:51:27.592Z,3.28
2022-09-16T22:53:54.805Z,4.72
2022-09-16T22:56:29.310Z,2.70
2022-09-16T22:58:56.957Z,3.28
2022-09-16T23:01:31.781Z,3.67
2022-09-16T23:04:00.719Z,3.00
2022-09-16T23:06:30.068Z,3.45
2022-09-16T23:08:57.695Z,2.78
2022-09-16T23:11:28.651Z,2.30
2022-09-16T23:13:56.835Z,2.40
2022-09-16T23:16:26.958Z,2.00
2022-09-16T23:18:55.673Z,1.70
2022-09-16T23:21:22.724Z,1.63
2022-09-16T23:23:52.491Z,1.88
2022-09-16T23:26:24.704Z,1.58
2022-09-16T23:28:53.632Z,2.08
2022-09-16T23:31:22.125Z,1.98
2022-09-16T23:33:49.009Z,1.90
2022-09-16T23:36:17.603Z,1.75
2022-09-16T23:38:45.885Z,1.90
2022-09-16T23:41:15.771Z,1.90
2022-09-16T23:43:43.195Z,2.00
2022-09-16T23:46:11.722Z,1.80
2022-09-16T23:48:38.547Z,1.83
2022-09-16T23:51:06.418Z,1.60
2022-09-16T23:53:34.378Z,1.52
2022-09-16T23:56:08.589Z,1.50
2022-09-16T23:58:35.463Z,2.00
